Terminal Aerodrome Forecast
Issued by NWS Jackson, KY

Home | Current Version | Previous Version | Text Only | Print | Product List | Glossary On
Versions: 1 2 3 4 5 6 7 8 9 10 11 12 13 14 15 16 17 18 19
000
FTUS43 KJKL 030500
TAFLOZ
TAF
KLOZ 030528Z 0306/0406 00000KT 6SM BR SCT100 BKN250
     FM030800 00000KT 2SM BR SCT003
     FM031000 00000KT 1/2SM FG VV002
     FM031300 00000KT 2SM BR OVC006
     FM031500 00000KT 6SM BR OVC015
     FM031800 VRB03KT P6SM VCSH BKN025
     FM032000 VRB03KT P6SM VCSH BKN035=

USA.gov is the U.S. government's official web portal to all federal, state and local government web resources and services.